createdAt,value
2023-03-19T00:02:17.499Z,64.81
2023-03-19T00:04:47.722Z,65.34
2023-03-19T00:07:16.992Z,65.47
2023-03-19T00:09:45.350Z,64.97
2023-03-19T00:12:13.486Z,64.92
2023-03-19T00:14:42.062Z,65.26
2023-03-19T00:17:10.037Z,64.80
2023-03-19T00:19:37.983Z,65.16
2023-03-19T00:22:07.419Z,65.53
2023-03-19T00:24:35.678Z,66.29
2023-03-19T00:27:03.734Z,66.26
2023-03-19T00:29:31.823Z,66.64
2023-03-19T00:31:59.731Z,66.39
2023-03-19T00:34:28.242Z,65.94
2023-03-19T00:36:57.000Z,66.44
2023-03-19T00:39:26.350Z,66.43
2023-03-19T00:41:54.440Z,66.80
2023-03-19T00:44:22.333Z,65.50
2023-03-19T00:46:50.725Z,65.60
2023-03-19T00:49:18.626Z,65.81
2023-03-19T00:51:46.586Z,66.37
2023-03-19T00:54:15.052Z,66.08
2023-03-19T00:56:44.317Z,67.08
2023-03-19T00:59:12.244Z,67.50
2023-03-19T01:01:40.173Z,67.23
2023-03-19T01:04:08.194Z,67.21
2023-03-19T01:06:36.639Z,66.59
2023-03-19T01:09:05.753Z,66.34
2023-03-19T01:11:33.715Z,66.25
2023-03-19T01:14:03.137Z,68.79
2023-03-19T01:16:31.581Z,69.27
2023-03-19T01:18:59.750Z,69.42
2023-03-19T01:21:30.950Z,69.35
2023-03-19T01:23:59.371Z,69.61
2023-03-19T01:26:28.777Z,69.25
2023-03-19T01:29:05.736Z,68.35
2023-03-19T01:31:34.643Z,68.12
2023-03-19T01:34:35.504Z,68.08
2023-03-19T01:37:09.636Z,67.03
2023-03-19T01:39:38.424Z,67.11
2023-03-19T01:42:10.078Z,67.73
2023-03-19T01:44:53.565Z,67.50
2023-03-19T01:47:43.844Z,67.70
2023-03-19T01:50:24.809Z,68.11
2023-03-19T01:53:03.665Z,67.32
2023-03-19T01:55:46.501Z,67.41
2023-03-19T01:58:41.238Z,68.36
2023-03-19T02:01:31.355Z,68.25
2023-03-19T02:04:01.358Z,69.85
2023-03-19T02:06:34.894Z,69.26
2023-03-19T02:09:04.056Z,68.92
2023-03-19T02:11:32.234Z,68.45
2023-03-19T02:14:00.756Z,68.83
2023-03-19T02:16:30.082Z,67.76
2023-03-19T02:18:59.192Z,67.68
2023-03-19T02:21:27.094Z,66.75
2023-03-19T02:24:01.393Z,66.71
2023-03-19T02:26:51.658Z,66.11
2023-03-19T02:29:19.872Z,66.48
2023-03-19T02:31:48.393Z,66.86
2023-03-19T02:34:37.855Z,66.18
2023-03-19T02:37:12.601Z,66.95
2023-03-19T02:39:48.811Z,66.06
2023-03-19T02:42:20.838Z,66.80
2023-03-19T02:44:49.029Z,66.74
2023-03-19T02:47:17.398Z,66.41
2023-03-19T02:49:45.420Z,67.32
2023-03-19T02:52:13.500Z,67.60
2023-03-19T02:54:41.604Z,67.38
2023-03-19T02:57:09.811Z,67.30
2023-03-19T02:59:39.817Z,67.67
2023-03-19T03:02:08.257Z,67.10
2023-03-19T03:04:37.116Z,67.38
2023-03-19T03:07:05.378Z,67.14
2023-03-19T03:09:33.277Z,67.05
2023-03-19T03:12:01.357Z,66.66
2023-03-19T03:14:29.766Z,68.11
2023-03-19T03:16:59.110Z,68.05
2023-03-19T03:19:27.213Z,69.00
2023-03-19T03:21:55.346Z,68.07
2023-03-19T03:24:24.373Z,68.03
2023-03-19T03:26:52.282Z,68.90
2023-03-19T03:29:21.827Z,68.19
2023-03-19T03:31:49.912Z,68.04
2023-03-19T03:34:19.563Z,68.50
2023-03-19T03:36:47.883Z,67.69
2023-03-19T03:39:16.192Z,68.61
2023-03-19T03:41:44.373Z,68.05
2023-03-19T03:44:12.459Z,68.15
2023-03-19T03:46:43.392Z,69.72
2023-03-19T03:49:11.777Z,69.40
2023-03-19T03:51:41.222Z,68.91
2023-03-19T03:54:09.509Z,68.76
2023-03-19T03:56:37.551Z,69.65
2023-03-19T03:59:05.495Z,69.04
2023-03-19T04:01:33.976Z,69.45
2023-03-19T04:04:02.074Z,69.21
2023-03-19T04:06:30.650Z,69.59
2023-03-19T04:09:15.380Z,69.53
2023-03-19T04:11:43.387Z,68.92
2023-03-19T04:14:11.325Z,68.72
2023-03-19T04:16:40.545Z,69.03
2023-03-19T04:19:08.791Z,68.77
2023-03-19T04:21:36.728Z,69.26
2023-03-19T04:24:05.018Z,69.08
2023-03-19T04:26:34.541Z,70.04
2023-03-19T04:29:02.432Z,68.95
2023-03-19T04:31:30.657Z,69.37
2023-03-19T04:33:58.775Z,69.97
2023-03-19T04:36:26.739Z,69.06
2023-03-19T04:38:54.848Z,69.14
2023-03-19T04:41:23.285Z,68.72
2023-03-19T04:44:07.716Z,69.02
2023-03-19T04:46:36.890Z,68.99
2023-03-19T04:49:04.832Z,69.67
2023-03-19T04:51:33.188Z,69.11
2023-03-19T04:54:01.105Z,69.66
2023-03-19T04:56:29.218Z,69.21
2023-03-19T04:58:57.946Z,69.95
2023-03-19T05:01:27.351Z,69.70
2023-03-19T05:04:05.158Z,70.00
2023-03-19T05:06:36.407Z,70.51
2023-03-19T05:09:05.075Z,70.29
2023-03-19T05:11:33.247Z,70.12
2023-03-19T05:14:05.616Z,70.36
2023-03-19T05:16:50.208Z,70.46
2023-03-19T05:19:18.180Z,70.32
2023-03-19T05:21:46.231Z,71.33
2023-03-19T05:24:15.688Z,70.44
2023-03-19T05:26:44.663Z,70.93
2023-03-19T05:29:30.320Z,70.99
2023-03-19T05:32:20.461Z,71.46
2023-03-19T05:34:48.730Z,71.55
2023-03-19T05:37:18.352Z,70.68
2023-03-19T05:39:52.306Z,71.42
2023-03-19T05:42:20.311Z,71.54
2023-03-19T05:44:48.942Z,71.21
2023-03-19T05:47:28.188Z,72.17
2023-03-19T05:49:58.324Z,71.31
2023-03-19T05:52:26.332Z,72.46
2023-03-19T05:54:57.746Z,71.15
2023-03-19T05:57:39.490Z,71.29
2023-03-19T06:00:27.885Z,71.89
2023-03-19T06:02:57.303Z,72.59
2023-03-19T06:05:43.988Z,71.30
2023-03-19T06:08:31.861Z,71.13
2023-03-19T06:11:09.737Z,72.45
2023-03-19T06:13:39.217Z,72.21
2023-03-19T06:16:11.473Z,72.48
2023-03-19T06:18:50.198Z,72.60
2023-03-19T06:21:18.238Z,72.30
2023-03-19T06:23:46.185Z,72.77
2023-03-19T06:26:18.052Z,73.50
2023-03-19T06:28:52.302Z,73.90
2023-03-19T06:31:21.415Z,73.99
2023-03-19T06:34:00.655Z,75.05
2023-03-19T06:36:38.316Z,74.00
2023-03-19T06:39:06.928Z,73.95
2023-03-19T06:41:34.852Z,74.79
2023-03-19T06:44:12.994Z,73.82
2023-03-19T06:46:40.933Z,74.13
2023-03-19T06:49:10.277Z,73.65
2023-03-19T06:51:38.240Z,74.92
2023-03-19T06:54:06.225Z,74.86
2023-03-19T06:56:34.229Z,73.56
2023-03-19T06:59:02.309Z,74.12
2023-03-19T07:01:30.319Z,74.73
2023-03-19T07:03:58.303Z,74.99
2023-03-19T07:06:27.587Z,74.25
2023-03-19T07:08:56.243Z,74.88
2023-03-19T07:11:24.157Z,73.74
2023-03-19T07:13:52.077Z,74.84
2023-03-19T07:16:20.044Z,74.88
2023-03-19T07:18:48.014Z,76.13
2023-03-19T07:21:15.959Z,76.91
2023-03-19T07:23:46.918Z,77.73
2023-03-19T07:26:15.382Z,77.21
2023-03-19T07:28:43.244Z,77.71
2023-03-19T07:31:11.178Z,76.62
2023-03-19T07:33:39.538Z,75.63
2023-03-19T07:36:08.493Z,75.59
2023-03-19T07:38:36.458Z,73.70
2023-03-19T07:41:06.094Z,73.16
2023-03-19T07:43:34.041Z,73.19
2023-03-19T07:46:03.084Z,73.15
2023-03-19T07:48:31.108Z,74.11
2023-03-19T07:50:59.078Z,74.44
2023-03-19T07:53:27.223Z,75.94
2023-03-19T07:55:55.285Z,76.84
2023-03-19T07:58:24.686Z,77.73
2023-03-19T08:00:52.599Z,78.83
2023-03-19T08:03:20.684Z,76.81
2023-03-19T08:05:50.001Z,77.18
2023-03-19T08:08:19.209Z,76.94
2023-03-19T08:10:48.025Z,76.91
2023-03-19T08:13:16.066Z,75.25
2023-03-19T08:15:45.469Z,75.58
2023-03-19T08:18:13.791Z,75.17
2023-03-19T08:20:41.711Z,75.70
2023-03-19T08:23:09.997Z,75.99
2023-03-19T08:25:37.882Z,76.36
2023-03-19T08:28:06.057Z,77.66
2023-03-19T08:30:34.459Z,79.82
2023-03-19T08:33:04.819Z,80.46
2023-03-19T08:35:32.805Z,78.24
2023-03-19T08:38:00.739Z,79.47
2023-03-19T08:40:28.686Z,79.73
2023-03-19T08:42:56.938Z,78.42
2023-03-19T08:45:24.912Z,78.35
2023-03-19T08:47:52.822Z,79.44
2023-03-19T08:50:22.404Z,81.91
2023-03-19T08:52:50.894Z,81.36
2023-03-19T08:55:19.079Z,81.21
2023-03-19T08:57:47.060Z,81.05
2023-03-19T09:00:16.446Z,81.58
2023-03-19T09:02:44.331Z,82.86
2023-03-19T09:05:12.276Z,81.69
2023-03-19T09:07:41.573Z,80.90
2023-03-19T09:10:10.129Z,81.57
2023-03-19T09:12:38.046Z,82.50
2023-03-19T09:15:07.112Z,81.73
2023-03-19T09:17:35.051Z,82.66
2023-03-19T09:20:06.118Z,83.08
2023-03-19T09:22:34.777Z,82.88
2023-03-19T09:25:04.228Z,82.48
2023-03-19T09:27:32.571Z,83.20
2023-03-19T09:30:00.780Z,83.08
2023-03-19T09:32:28.691Z,83.19
2023-03-19T09:34:56.607Z,83.09
2023-03-19T09:37:24.564Z,82.73
2023-03-19T09:39:52.432Z,81.57
2023-03-19T09:42:37.528Z,81.89
2023-03-19T09:45:06.768Z,82.86
2023-03-19T09:47:37.423Z,81.15
2023-03-19T09:50:12.533Z,79.80
2023-03-19T09:52:47.064Z,80.16
2023-03-19T09:55:26.204Z,79.31
2023-03-19T09:57:57.852Z,79.99
2023-03-19T10:00:28.232Z,80.37
2023-03-19T10:03:03.867Z,80.66
2023-03-19T10:05:43.567Z,80.65
2023-03-19T10:08:29.240Z,79.72
2023-03-19T10:11:12.350Z,81.19
2023-03-19T10:13:53.941Z,79.75
2023-03-19T10:16:25.393Z,79.18
2023-03-19T10:18:57.205Z,79.36
2023-03-19T10:21:32.343Z,79.46
2023-03-19T10:24:04.725Z,79.50
2023-03-19T10:26:35.874Z,78.91
2023-03-19T10:29:11.284Z,79.12
2023-03-19T10:31:45.446Z,78.63
2023-03-19T10:34:29.440Z,78.37
2023-03-19T10:37:01.258Z,78.00
2023-03-19T10:39:29.437Z,77.99
2023-03-19T10:42:09.061Z,77.83
2023-03-19T10:44:43.413Z,78.27
2023-03-19T10:47:14.040Z,77.56
2023-03-19T10:49:42.427Z,77.78
2023-03-19T10:52:21.417Z,76.55
2023-03-19T10:54:49.369Z,77.38
2023-03-19T10:57:26.657Z,77.83
2023-03-19T10:59:56.398Z,77.16
2023-03-19T11:02:31.065Z,76.55
2023-03-19T11:05:23.205Z,76.81
2023-03-19T11:07:52.557Z,76.75
2023-03-19T11:10:21.729Z,76.46
2023-03-19T11:12:55.692Z,77.04
2023-03-19T11:15:30.031Z,76.13
2023-03-19T11:18:00.001Z,76.04
2023-03-19T11:20:34.947Z,76.07
2023-03-19T11:23:06.240Z,76.37
2023-03-19T11:25:38.931Z,76.46
2023-03-19T11:28:09.744Z,76.49
2023-03-19T11:30:50.851Z,76.48
2023-03-19T11:33:36.442Z,76.63
2023-03-19T11:36:13.816Z,76.47
2023-03-19T11:38:52.774Z,76.18
2023-03-19T11:41:31.623Z,75.47
2023-03-19T11:44:02.767Z,76.44
2023-03-19T11:46:42.799Z,76.26
2023-03-19T11:49:32.795Z,76.14
2023-03-19T11:52:08.283Z,76.61
2023-03-19T11:54:45.201Z,77.13
2023-03-19T11:57:19.310Z,77.07
2023-03-19T12:00:08.158Z,77.86
2023-03-19T12:02:57.086Z,77.95
2023-03-19T12:05:33.103Z,78.56
2023-03-19T12:08:20.540Z,77.83
2023-03-19T12:11:05.128Z,79.46
2023-03-19T12:13:48.723Z,77.94
2023-03-19T12:16:25.168Z,78.06
2023-03-19T12:19:16.922Z,77.86
2023-03-19T12:21:58.476Z,76.87
2023-03-19T12:24:41.290Z,76.48
2023-03-19T12:27:23.943Z,76.87
2023-03-19T12:29:59.853Z,75.69
2023-03-19T12:32:42.192Z,75.49
2023-03-19T12:35:16.468Z,74.63
2023-03-19T12:37:54.753Z,74.66
2023-03-19T12:40:29.354Z,74.89
2023-03-19T12:42:59.789Z,74.44
2023-03-19T12:45:32.619Z,74.59
2023-03-19T12:48:08.501Z,74.97
2023-03-19T12:50:43.019Z,74.51
2023-03-19T12:53:21.282Z,75.11
2023-03-19T12:55:55.760Z,75.08
2023-03-19T12:58:31.375Z,74.97
2023-03-19T13:01:07.430Z,74.22
2023-03-19T13:03:42.977Z,74.27
2023-03-19T13:06:20.409Z,74.05
2023-03-19T13:08:53.778Z,73.63
2023-03-19T13:11:32.582Z,72.75
2023-03-19T13:14:05.290Z,72.81
2023-03-19T13:16:40.893Z,71.97
2023-03-19T13:19:21.444Z,72.58
2023-03-19T13:21:54.454Z,71.36
2023-03-19T13:24:26.483Z,71.51
2023-03-19T13:26:56.504Z,71.09
2023-03-19T13:29:27.063Z,71.16
2023-03-19T13:32:01.621Z,71.08
2023-03-19T13:34:33.029Z,70.96
2023-03-19T13:37:09.050Z,70.64
2023-03-19T13:39:38.107Z,70.66
2023-03-19T13:42:23.820Z,70.45
2023-03-19T13:44:55.138Z,70.32
2023-03-19T13:47:40.694Z,70.09
2023-03-19T13:50:27.348Z,70.21
2023-03-19T13:53:21.409Z,70.43
2023-03-19T13:55:55.863Z,70.02
2023-03-19T13:58:44.375Z,70.27
2023-03-19T14:01:34.876Z,70.56
2023-03-19T14:04:06.083Z,70.56
2023-03-19T14:06:38.077Z,70.75
2023-03-19T14:09:07.933Z,70.97
2023-03-19T14:11:38.821Z,70.56
2023-03-19T14:14:14.410Z,70.09
2023-03-19T14:16:46.538Z,69.97
2023-03-19T14:19:19.937Z,70.23
2023-03-19T14:22:11.060Z,69.33
2023-03-19T14:24:56.391Z,69.95
2023-03-19T14:27:32.739Z,69.86
2023-03-19T14:30:09.781Z,69.16
2023-03-19T14:32:40.913Z,69.43
2023-03-19T14:35:34.031Z,69.73
2023-03-19T14:38:03.174Z,69.43
2023-03-19T14:40:39.750Z,69.44
2023-03-19T14:43:18.847Z,69.30
2023-03-19T14:45:54.341Z,69.94
2023-03-19T14:48:37.375Z,69.48
2023-03-19T14:51:40.321Z,68.89
2023-03-19T14:54:24.981Z,68.87
2023-03-19T14:56:52.963Z,68.80
2023-03-19T14:59:21.841Z,68.52
2023-03-19T15:01:53.197Z,68.58
2023-03-19T15:04:40.158Z,68.79
2023-03-19T15:07:21.192Z,68.40
2023-03-19T15:10:14.319Z,68.38
2023-03-19T15:13:06.241Z,68.52
2023-03-19T15:16:12.944Z,68.45
2023-03-19T15:18:40.914Z,68.68
2023-03-19T15:21:09.445Z,69.10
2023-03-19T15:23:40.383Z,68.85
2023-03-19T15:26:11.673Z,68.85
2023-03-19T15:28:49.510Z,69.11
2023-03-19T15:32:07.483Z,70.55
2023-03-19T15:34:42.229Z,70.91
2023-03-19T15:37:14.163Z,71.11
2023-03-19T15:39:49.994Z,72.19
2023-03-19T15:42:20.461Z,73.83
2023-03-19T15:44:51.386Z,79.59
2023-03-19T15:47:22.969Z,80.44
2023-03-19T15:49:57.772Z,83.99
2023-03-19T15:52:27.121Z,84.96
2023-03-19T15:54:57.307Z,87.20
2023-03-19T15:57:26.009Z,87.38
2023-03-19T15:59:55.470Z,87.86
2023-03-19T16:02:27.974Z,89.68
2023-03-19T16:05:20.473Z,89.37
2023-03-19T16:07:45.242Z,89.41
2023-03-19T16:10:35.746Z,92.89
2023-03-19T16:13:05.777Z,91.69
2023-03-19T16:15:43.648Z,92.74
2023-03-19T16:18:24.597Z,96.43
2023-03-19T16:21:02.729Z,96.30
2023-03-19T16:23:33.215Z,96.18
2023-03-19T16:26:13.411Z,97.13
2023-03-19T16:28:45.310Z,96.05
2023-03-19T16:31:25.941Z,95.87
2023-03-19T16:33:54.396Z,95.73
2023-03-19T16:36:23.212Z,95.59
2023-03-19T16:38:57.272Z,97.28
2023-03-19T16:41:32.346Z,96.72
2023-03-19T16:44:14.309Z,96.88
2023-03-19T16:46:42.525Z,95.62
2023-03-19T16:49:10.703Z,95.87
2023-03-19T16:51:39.312Z,95.77
2023-03-19T16:54:07.458Z,96.01
2023-03-19T16:56:37.475Z,94.94
2023-03-19T16:59:05.700Z,95.01
2023-03-19T17:01:33.641Z,95.08
2023-03-19T17:04:01.647Z,93.94
2023-03-19T17:06:34.388Z,94.23
2023-03-19T17:09:02.330Z,93.89
2023-03-19T17:11:35.123Z,93.96
2023-03-19T17:14:06.263Z,93.30
2023-03-19T17:16:34.967Z,94.13
2023-03-19T17:19:04.343Z,95.01
2023-03-19T17:21:34.135Z,94.66
2023-03-19T17:24:17.711Z,94.58
2023-03-19T17:26:45.974Z,94.10
2023-03-19T17:29:15.392Z,92.65
2023-03-19T17:31:43.790Z,93.43
2023-03-19T17:34:14.822Z,94.71
2023-03-19T17:36:45.710Z,95.92
2023-03-19T17:39:13.608Z,96.10
2023-03-19T17:41:41.616Z,97.64
2023-03-19T17:44:10.082Z,99.34
2023-03-19T17:46:41.501Z,99.06
2023-03-19T17:49:16.652Z,99.14
2023-03-19T17:51:44.580Z,100.00
2023-03-19T17:54:14.192Z,100.00
2023-03-19T17:56:43.501Z,100.00
2023-03-19T17:59:11.475Z,100.00
2023-03-19T18:01:43.068Z,100.00
2023-03-19T18:04:14.275Z,100.00
2023-03-19T18:06:44.365Z,100.00
2023-03-19T18:09:19.719Z,100.00
2023-03-19T18:11:47.636Z,99.83
2023-03-19T18:14:15.598Z,100.00
2023-03-19T18:16:45.080Z,99.78
2023-03-19T18:19:20.448Z,99.72
2023-03-19T18:21:48.356Z,100.00
2023-03-19T18:24:16.270Z,100.00
2023-03-19T18:26:44.157Z,100.00
2023-03-19T18:29:12.068Z,100.00
2023-03-19T18:31:41.473Z,100.00
2023-03-19T18:34:14.227Z,100.00
2023-03-19T18:36:42.862Z,100.00
2023-03-19T18:39:13.604Z,100.00
2023-03-19T18:41:42.068Z,100.00
2023-03-19T18:44:11.015Z,100.00
2023-03-19T18:46:40.661Z,100.00
2023-03-19T18:49:22.434Z,100.00
2023-03-19T18:52:02.180Z,100.00
2023-03-19T18:54:32.009Z,100.00
2023-03-19T18:57:00.688Z,99.14
2023-03-19T18:59:32.617Z,99.49
2023-03-19T19:02:03.043Z,98.89
2023-03-19T19:04:32.384Z,99.56
2023-03-19T19:07:01.687Z,98.56
2023-03-19T19:09:29.738Z,97.93
2023-03-19T19:12:01.054Z,99.33
2023-03-19T19:14:29.444Z,99.19
2023-03-19T19:16:58.572Z,100.00
2023-03-19T19:19:28.631Z,100.00
2023-03-19T19:21:58.014Z,100.00
2023-03-19T19:24:25.901Z,100.00
2023-03-19T19:26:54.380Z,100.00
2023-03-19T19:29:25.195Z,100.00
2023-03-19T19:31:54.329Z,100.00
2023-03-19T19:34:22.298Z,100.00
2023-03-19T19:36:50.958Z,100.00
2023-03-19T19:39:20.397Z,100.00
2023-03-19T19:41:49.113Z,100.00
2023-03-19T19:44:19.966Z,100.00
2023-03-19T19:46:47.948Z,100.00
2023-03-19T19:49:16.405Z,100.00
2023-03-19T19:51:44.294Z,100.00
2023-03-19T19:54:12.222Z,100.00
2023-03-19T19:56:41.646Z,100.00
2023-03-19T19:59:15.443Z,100.00
2023-03-19T20:01:43.614Z,100.00
2023-03-19T20:04:15.106Z,100.00
2023-03-19T20:06:43.066Z,100.00
2023-03-19T20:09:11.259Z,100.00
2023-03-19T20:11:39.600Z,100.00
2023-03-19T20:14:14.443Z,100.00
2023-03-19T20:16:42.433Z,100.00
2023-03-19T20:19:18.817Z,100.00
2023-03-19T20:21:46.795Z,99.39
2023-03-19T20:24:14.700Z,99.65
2023-03-19T20:26:43.490Z,99.88
2023-03-19T20:29:15.956Z,99.94
2023-03-19T20:31:47.062Z,100.00
2023-03-19T20:34:28.756Z,100.00
2023-03-19T20:37:04.193Z,100.00
2023-03-19T20:39:32.071Z,100.00
2023-03-19T20:42:00.042Z,100.00
2023-03-19T20:44:29.827Z,100.00
2023-03-19T20:46:59.045Z,99.72
2023-03-19T20:49:27.045Z,99.00
2023-03-19T20:51:54.973Z,100.00
2023-03-19T20:54:23.723Z,100.00
2023-03-19T20:56:52.901Z,98.81
2023-03-19T20:59:20.806Z,99.91
2023-03-19T21:01:50.397Z,99.63
2023-03-19T21:04:21.039Z,99.70
2023-03-19T21:06:53.469Z,99.77
2023-03-19T21:09:22.675Z,99.58
2023-03-19T21:11:52.137Z,100.00
2023-03-19T21:14:23.251Z,100.00
2023-03-19T21:16:52.523Z,99.58
2023-03-19T21:19:20.475Z,100.00
2023-03-19T21:21:48.411Z,99.59
2023-03-19T21:24:20.565Z,100.00
2023-03-19T21:26:48.792Z,100.00
2023-03-19T21:29:22.538Z,100.00
2023-03-19T21:31:54.210Z,100.00
2023-03-19T21:34:22.179Z,100.00
2023-03-19T21:36:50.108Z,100.00
2023-03-19T21:39:18.578Z,100.00
2023-03-19T21:41:47.609Z,100.00
2023-03-19T21:44:19.592Z,100.00
2023-03-19T21:46:48.923Z,100.00
2023-03-19T21:49:18.258Z,99.90
2023-03-19T21:51:46.818Z,100.00
2023-03-19T21:54:15.773Z,99.65
2023-03-19T21:56:46.023Z,98.69
2023-03-19T21:59:15.718Z,97.86
2023-03-19T22:01:43.961Z,98.96
2023-03-19T22:04:12.031Z,98.76
2023-03-19T22:06:42.381Z,99.00
2023-03-19T22:09:10.574Z,98.83
2023-03-19T22:11:41.658Z,98.04
2023-03-19T22:14:17.795Z,99.01
2023-03-19T22:16:46.443Z,98.31
2023-03-19T22:19:15.511Z,98.73
2023-03-19T22:21:44.907Z,99.52
2023-03-19T22:24:12.943Z,99.73
2023-03-19T22:26:42.795Z,99.40
2023-03-19T22:29:15.831Z,98.80
2023-03-19T22:31:44.151Z,98.38
2023-03-19T22:34:15.448Z,98.27
2023-03-19T22:36:45.298Z,98.93
2023-03-19T22:39:13.740Z,98.54
2023-03-19T22:41:45.553Z,98.61
2023-03-19T22:44:21.011Z,98.03
2023-03-19T22:46:49.072Z,98.16
2023-03-19T22:49:18.860Z,97.85
2023-03-19T22:51:48.282Z,97.83
2023-03-19T22:54:16.388Z,97.58
2023-03-19T22:56:44.479Z,97.60
2023-03-19T22:59:12.415Z,97.23
2023-03-19T23:01:43.218Z,97.45
2023-03-19T23:04:19.878Z,97.80
2023-03-19T23:06:49.702Z,97.17
2023-03-19T23:09:19.322Z,97.74
2023-03-19T23:11:48.318Z,96.96
2023-03-19T23:14:28.620Z,97.22
2023-03-19T23:19:29.141Z,97.18
2023-03-19T23:21:59.684Z,96.82
2023-03-19T23:24:30.208Z,96.73
2023-03-19T23:26:59.820Z,97.10
2023-03-19T23:29:31.209Z,96.83
2023-03-19T23:31:59.544Z,97.51
2023-03-19T23:34:28.513Z,96.62
2023-03-19T23:36:58.097Z,96.83
2023-03-19T23:39:26.704Z,97.25
2023-03-19T23:41:58.184Z,97.35
2023-03-19T23:44:29.062Z,96.76
2023-03-19T23:47:00.949Z,96.39
2023-03-19T23:49:30.803Z,96.27
2023-03-19T23:52:00.752Z,96.50
2023-03-19T23:54:31.586Z,96.47
2023-03-19T23:57:02.108Z,96.58
2023-03-19T23:59:33.926Z,96.53
